Talghar, Kazakhstan
Current Conditions -  °F | °C
As of 1:30 AM on Sunday 26 Oct 2014 (Local Time) from UAAA Reporting Station
Haze Haze  
Wind Chill: 42°   Ceiling: Unl
Heat Index: 45°   Visibility: 2mi
Dew Point: 41°   Wind: 4mph
Humidity: 87%   Direction: 120°ESE
Pressure: 29.97"   Gusts: NA
Location:  43.3°N, 77.22°E
Report Text: UAAA 251930Z 12002MPS 3300 BR SCT100 07/05 Q1015 R88/CLRD65NOSIG
Loading
Personal Weather Stations






























Interactive Weather Map
Tropical Storm Tracking
New forecast layout! Learn more

10-Day Weather Forecast

Advertisements
Track Severe Weather on mobile